sensor_id;sensor_type;location;lat;lon;timestamp;pressure;altitude;pressure_sealevel;temperature;humidity
62420;BME280;48460;51.616;5.426;2023-03-03T00:00:41;102248.63;;;0.98;100.00
62420;BME280;48460;51.616;5.426;2023-03-03T00:03:10;102237.44;;;1.00;100.00
62420;BME280;48460;51.616;5.426;2023-03-03T00:05:37;102257.34;;;1.06;100.00
62420;BME280;48460;51.616;5.426;2023-03-03T00:08:17;102245.25;;;1.05;100.00
62420;BME280;48460;51.616;5.426;2023-03-03T00:11:02;102254.81;;;1.12;100.00
62420;BME280;48460;51.616;5.426;2023-03-03T00:13:40;102260.84;;;1.12;100.00
62420;BME280;48460;51.616;5.426;2023-03-03T00:16:34;102265.19;;;1.10;100.00
62420;BME280;48460;51.616;5.426;2023-03-03T00:19:21;102274.81;;;1.22;100.00
62420;BME280;48460;51.616;5.426;2023-03-03T00:21:56;102264.38;;;1.18;100.00
62420;BME280;48460;51.616;5.426;2023-03-03T00:24:36;102262.69;;;1.23;100.00
62420;BME280;48460;51.616;5.426;2023-03-03T00:27:16;102271.38;;;1.28;100.00
62420;BME280;48460;51.616;5.426;2023-03-03T00:32:56;102257.50;;;1.21;100.00
62420;BME280;48460;51.616;5.426;2023-03-03T00:37:58;102268.66;;;1.16;100.00
62420;BME280;48460;51.616;5.426;2023-03-03T00:43:31;102277.31;;;1.18;100.00
62420;BME280;48460;51.616;5.426;2023-03-03T00:46:09;102268.59;;;1.08;100.00
62420;BME280;48460;51.616;5.426;2023-03-03T00:48:44;102265.97;;;1.06;100.00
62420;BME280;48460;51.616;5.426;2023-03-03T00:51:26;102262.47;;;1.00;100.00
62420;BME280;48460;51.616;5.426;2023-03-03T00:53:56;102271.16;;;1.05;100.00
62420;BME280;48460;51.616;5.426;2023-03-03T00:56:22;102269.38;;;0.99;100.00
62420;BME280;48460;51.616;5.426;2023-03-03T00:58:52;102265.06;;;0.98;100.00
62420;BME280;48460;51.616;5.426;2023-03-03T01:01:18;102278.06;;;1.06;100.00
62420;BME280;48460;51.616;5.426;2023-03-03T01:03:53;102274.63;;;1.05;100.00
62420;BME280;48460;51.616;5.426;2023-03-03T01:06:27;102270.28;;;1.01;100.00
62420;BME280;48460;51.616;5.426;2023-03-03T01:09:02;102284.13;;;1.06;100.00
62420;BME280;48460;51.616;5.426;2023-03-03T01:11:30;102288.41;;;1.03;100.00
62420;BME280;48460;51.616;5.426;2023-03-03T01:13:58;102283.13;;;0.95;100.00
62420;BME280;48460;51.616;5.426;2023-03-03T01:16:24;102282.25;;;0.93;100.00
62420;BME280;48460;51.616;5.426;2023-03-03T01:18:49;102283.16;;;0.97;100.00
62420;BME280;48460;51.616;5.426;2023-03-03T01:21:15;102288.31;;;0.95;100.00
62420;BME280;48460;51.616;5.426;2023-03-03T01:23:41;102283.09;;;0.92;100.00
62420;BME280;48460;51.616;5.426;2023-03-03T01:26:14;102273.66;;;0.97;100.00
62420;BME280;48460;51.616;5.426;2023-03-03T01:28:52;102290.19;;;1.08;100.00
62420;BME280;48460;51.616;5.426;2023-03-03T01:31:28;102282.34;;;1.04;100.00
62420;BME280;48460;51.616;5.426;2023-03-03T01:33:56;102284.06;;;0.99;100.00
62420;BME280;48460;51.616;5.426;2023-03-03T01:36:26;102290.09;;;1.01;100.00
62420;BME280;48460;51.616;5.426;2023-03-03T01:38:57;102286.69;;;1.03;100.00
62420;BME280;48460;51.616;5.426;2023-03-03T01:41:26;102280.59;;;1.00;100.00
62420;BME280;48460;51.616;5.426;2023-03-03T01:43:59;102276.28;;;1.00;100.00
62420;BME280;48460;51.616;5.426;2023-03-03T01:46:50;102278.06;;;1.04;100.00
62420;BME280;48460;51.616;5.426;2023-03-03T01:49:41;102297.06;;;1.05;100.00
62420;BME280;48460;51.616;5.426;2023-03-03T01:52:33;102287.53;;;1.02;100.00
62420;BME280;48460;51.616;5.426;2023-03-03T01:55:07;102291.78;;;0.96;100.00
62420;BME280;48460;51.616;5.426;2023-03-03T01:57:55;102287.47;;;0.98;100.00
62420;BME280;48460;51.616;5.426;2023-03-03T02:00:25;102285.75;;;0.97;100.00
62420;BME280;48460;51.616;5.426;2023-03-03T02:03:01;102294.28;;;0.88;100.00
62420;BME280;48460;51.616;5.426;2023-03-03T02:05:27;102299.41;;;0.85;100.00
62420;BME280;48460;51.616;5.426;2023-03-03T02:08:03;102296.84;;;0.85;100.00
62420;BME280;48460;51.616;5.426;2023-03-03T02:10:36;102295.06;;;0.82;100.00
62420;BME280;48460;51.616;5.426;2023-03-03T02:13:15;102295.91;;;0.80;100.00
62420;BME280;48460;51.616;5.426;2023-03-03T02:15:56;102290.72;;;0.78;100.00
62420;BME280;48460;51.616;5.426;2023-03-03T02:18:30;102310.59;;;0.82;100.00
62420;BME280;48460;51.616;5.426;2023-03-03T02:21:15;102292.38;;;0.72;100.00
62420;BME280;48460;51.616;5.426;2023-03-03T02:26:44;102292.31;;;0.67;100.00
62420;BME280;48460;51.616;5.426;2023-03-03T02:29:10;102300.03;;;0.64;100.00
62420;BME280;48460;51.616;5.426;2023-03-03T02:31:46;102299.06;;;0.56;100.00
62420;BME280;48460;51.616;5.426;2023-03-03T02:34:14;102302.59;;;0.61;100.00
62420;BME280;48460;51.616;5.426;2023-03-03T02:36:42;102293.03;;;0.55;100.00
62420;BME280;48460;51.616;5.426;2023-03-03T02:39:29;102302.66;;;0.67;100.00
62420;BME280;48460;51.616;5.426;2023-03-03T02:42:20;102296.66;;;0.70;100.00
62420;BME280;48460;51.616;5.426;2023-03-03T02:44:48;102286.13;;;0.56;100.00
62420;BME280;48460;51.616;5.426;2023-03-03T02:47:19;102288.59;;;0.47;100.00
62420;BME280;48460;51.616;5.426;2023-03-03T02:49:49;102290.44;;;0.54;100.00
62420;BME280;48460;51.616;5.426;2023-03-03T02:52:19;102293.91;;;0.57;100.00
62420;BME280;48460;51.616;5.426;2023-03-03T02:54:45;102284.41;;;0.55;100.00
62420;BME280;48460;51.616;5.426;2023-03-03T02:57:18;102286.16;;;0.59;100.00
62420;BME280;48460;51.616;5.426;2023-03-03T02:59:56;102287.06;;;0.62;100.00
62420;BME280;48460;51.616;5.426;2023-03-03T03:02:32;102294.91;;;0.65;100.00
62420;BME280;48460;51.616;5.426;2023-03-03T03:04:58;102287.06;;;0.62;100.00
62420;BME280;48460;51.616;5.426;2023-03-03T03:07:26;102290.53;;;0.64;100.00
62420;BME280;48460;51.616;5.426;2023-03-03T03:09:56;102294.00;;;0.63;100.00
62420;BME280;48460;51.616;5.426;2023-03-03T03:12:32;102297.44;;;0.64;100.00
62420;BME280;48460;51.616;5.426;2023-03-03T03:15:00;102285.22;;;0.51;100.00
62420;BME280;48460;51.616;5.426;2023-03-03T03:17:40;102290.41;;;0.52;100.00
62420;BME280;48460;51.616;5.426;2023-03-03T03:20:08;102298.13;;;0.49;100.00
62420;BME280;48460;51.616;5.426;2023-03-03T03:22:54;102291.28;;;0.56;100.00
62420;BME280;48460;51.616;5.426;2023-03-03T03:25:27;102301.44;;;0.40;100.00
62420;BME280;48460;51.616;5.426;2023-03-03T03:27:53;102301.44;;;0.40;100.00
62420;BME280;48460;51.616;5.426;2023-03-03T03:30:31;102303.88;;;0.30;100.00
62420;BME280;48460;51.616;5.426;2023-03-03T03:32:59;102321.25;;;0.38;100.00
62420;BME280;48460;51.616;5.426;2023-03-03T03:35:27;102304.78;;;0.32;100.00
62420;BME280;48460;51.616;5.426;2023-03-03T03:38:16;102306.50;;;0.31;100.00
62420;BME280;48460;51.616;5.426;2023-03-03T03:40:44;102316.13;;;0.41;100.00
62420;BME280;48460;51.616;5.426;2023-03-03T03:43:12;102305.69;;;0.35;100.00
62420;BME280;48460;51.616;5.426;2023-03-03T03:45:48;102306.63;;;0.39;100.00
62420;BME280;48460;51.616;5.426;2023-03-03T03:48:19;102317.00;;;0.42;100.00
62420;BME280;48460;51.616;5.426;2023-03-03T03:50:48;102301.50;;;0.43;100.00
62420;BME280;48460;51.616;5.426;2023-03-03T03:53:17;102297.94;;;0.35;100.00
62420;BME280;48460;51.616;5.426;2023-03-03T03:55:45;102310.16;;;0.45;100.00
62420;BME280;48460;51.616;5.426;2023-03-03T03:58:15;102309.25;;;0.42;100.00
62420;BME280;48460;51.616;5.426;2023-03-03T04:00:45;102308.31;;;0.38;100.00
62420;BME280;48460;51.616;5.426;2023-03-03T04:03:23;102317.72;;;0.30;100.00
62420;BME280;48460;51.616;5.426;2023-03-03T04:05:52;102309.00;;;0.25;100.00
62420;BME280;48460;51.616;5.426;2023-03-03T04:08:27;102310.69;;;0.23;100.00
62420;BME280;48460;51.616;5.426;2023-03-03T04:10:57;102325.47;;;0.30;100.00
62420;BME280;48460;51.616;5.426;2023-03-03T04:13:32;102322.03;;;0.31;100.00
62420;BME280;48460;51.616;5.426;2023-03-03T04:16:10;102329.88;;;0.37;100.00
62420;BME280;48460;51.616;5.426;2023-03-03T04:18:40;102310.72;;;0.25;100.00
62420;BME280;48460;51.616;5.426;2023-03-03T04:21:15;102307.31;;;0.27;100.00
62420;BME280;48460;51.616;5.426;2023-03-03T04:23:46;102331.59;;;0.37;100.00
62420;BME280;48460;51.616;5.426;2023-03-03T04:26:14;102316.81;;;0.30;100.00
62420;BME280;48460;51.616;5.426;2023-03-03T04:29:14;102315.09;;;0.27;100.00
62420;BME280;48460;51.616;5.426;2023-03-03T04:31:59;102320.34;;;0.33;100.00
62420;BME280;48460;51.616;5.426;2023-03-03T04:34:27;102329.00;;;0.37;100.00
62420;BME280;48460;51.616;5.426;2023-03-03T04:37:00;102318.59;;;0.32;100.00
62420;BME280;48460;51.616;5.426;2023-03-03T04:39:31;102329.97;;;0.43;100.00
62420;BME280;48460;51.616;5.426;2023-03-03T04:41:58;102318.66;;;0.37;100.00
62420;BME280;48460;51.616;5.426;2023-03-03T04:44:35;102332.63;;;0.48;100.00
62420;BME280;48460;51.616;5.426;2023-03-03T04:47:12;102327.41;;;0.47;100.00
62420;BME280;48460;51.616;5.426;2023-03-03T04:49:43;102316.25;;;0.49;100.00
62420;BME280;48460;51.616;5.426;2023-03-03T04:52:33;102336.28;;;0.64;100.00
62420;BME280;48460;51.616;5.426;2023-03-03T04:55:04;102324.00;;;0.49;100.00
62420;BME280;48460;51.616;5.426;2023-03-03T04:57:42;102321.38;;;0.48;100.00
62420;BME280;48460;51.616;5.426;2023-03-03T05:00:31;102323.13;;;0.50;100.00
62420;BME280;48460;51.616;5.426;2023-03-03T05:03:30;102330.91;;;0.49;100.00
62420;BME280;48460;51.616;5.426;2023-03-03T05:06:03;102324.81;;;0.45;100.00
62420;BME280;48460;51.616;5.426;2023-03-03T05:08:32;102330.00;;;0.45;100.00
62420;BME280;48460;51.616;5.426;2023-03-03T05:11:00;102330.00;;;0.45;100.00
62420;BME280;48460;51.616;5.426;2023-03-03T05:13:32;102336.94;;;0.49;100.00
62420;BME280;48460;51.616;5.426;2023-03-03T05:16:09;102333.53;;;0.53;100.00
62420;BME280;48460;51.616;5.426;2023-03-03T05:22:27;102346.56;;;0.58;100.00
62420;BME280;48460;51.616;5.426;2023-03-03T05:24:58;102336.16;;;0.56;100.00
62420;BME280;48460;51.616;5.426;2023-03-03T05:27:44;102336.19;;;0.59;100.00
62420;BME280;48460;51.616;5.426;2023-03-03T05:30:15;102332.75;;;0.59;100.00
62420;BME280;48460;51.616;5.426;2023-03-03T05:32:43;102338.91;;;0.67;100.00
62420;BME280;48460;51.616;5.426;2023-03-03T05:35:11;102328.50;;;0.64;100.00
62420;BME280;48460;51.616;5.426;2023-03-03T05:37:42;102332.81;;;0.65;100.00
62420;BME280;48460;51.616;5.426;2023-03-03T05:40:15;102334.63;;;0.71;100.00
62420;BME280;48460;51.616;5.426;2023-03-03T05:42:56;102337.25;;;0.72;100.00
62420;BME280;48460;51.616;5.426;2023-03-03T05:45:47;102350.28;;;0.78;100.00
62420;BME280;48460;51.616;5.426;2023-03-03T05:48:27;102342.50;;;0.78;100.00
62420;BME280;48460;51.616;5.426;2023-03-03T05:50:57;102339.03;;;0.76;100.00
62420;BME280;48460;51.616;5.426;2023-03-03T05:53:43;102340.75;;;0.77;100.00
62420;BME280;48460;51.616;5.426;2023-03-03T05:56:21;102335.53;;;0.73;100.00
62420;BME280;48460;51.616;5.426;2023-03-03T05:58:49;102345.88;;;0.73;100.00
62420;BME280;48460;51.616;5.426;2023-03-03T06:01:19;102352.03;;;0.82;100.00
62420;BME280;48460;51.616;5.426;2023-03-03T06:03:47;102352.03;;;0.82;100.00
62420;BME280;48460;51.616;5.426;2023-03-03T06:06:15;102339.88;;;0.77;100.00
62420;BME280;48460;51.616;5.426;2023-03-03T06:08:45;102340.75;;;0.76;100.00
62420;BME280;48460;51.616;5.426;2023-03-03T06:11:20;102354.63;;;0.81;100.00
62420;BME280;48460;51.616;5.426;2023-03-03T06:13:49;102350.25;;;0.77;100.00
62420;BME280;48460;51.616;5.426;2023-03-03T06:16:26;102362.41;;;0.81;100.00
62420;BME280;48460;51.616;5.426;2023-03-03T06:19:13;102348.47;;;0.74;100.00
62420;BME280;48460;51.616;5.426;2023-03-03T06:21:38;102364.13;;;0.82;100.00
62420;BME280;48460;51.616;5.426;2023-03-03T06:24:04;102374.56;;;0.86;100.00
62420;BME280;48460;51.616;5.426;2023-03-03T06:26:33;102371.91;;;0.82;100.00
62420;BME280;48460;51.616;5.426;2023-03-03T06:29:02;102364.09;;;0.79;100.00
62420;BME280;48460;51.616;5.426;2023-03-03T06:31:40;102384.88;;;0.83;100.00
62420;BME280;48460;51.616;5.426;2023-03-03T06:34:10;102372.75;;;0.82;100.00
62420;BME280;48460;51.616;5.426;2023-03-03T06:36:39;102378.91;;;0.92;100.00
62420;BME280;48460;51.616;5.426;2023-03-03T06:39:10;102382.28;;;0.85;100.00
62420;BME280;48460;51.616;5.426;2023-03-03T06:41:43;102389.28;;;0.92;100.00
62420;BME280;48460;51.616;5.426;2023-03-03T06:44:08;102397.91;;;0.91;100.00
62420;BME280;48460;51.616;5.426;2023-03-03T06:46:38;102403.94;;;0.90;100.00
62420;BME280;48460;51.616;5.426;2023-03-03T06:49:04;102413.44;;;0.91;100.00
62420;BME280;48460;51.616;5.426;2023-03-03T06:51:36;102410.84;;;0.91;100.00
62420;BME280;48460;51.616;5.426;2023-03-03T06:54:14;102422.09;;;0.90;100.00
62420;BME280;48460;51.616;5.426;2023-03-03T06:56:57;102420.31;;;0.89;100.00
62420;BME280;48460;51.616;5.426;2023-03-03T06:59:26;102416.91;;;0.90;100.00
62420;BME280;48460;51.616;5.426;2023-03-03T07:02:03;102414.28;;;0.87;100.00
62420;BME280;48460;51.616;5.426;2023-03-03T07:04:45;102412.53;;;0.87;100.00
62420;BME280;48460;51.616;5.426;2023-03-03T07:07:26;102418.72;;;0.96;100.00
62420;BME280;48460;51.616;5.426;2023-03-03T07:10:05;102414.41;;;0.98;100.00
62420;BME280;48460;51.616;5.426;2023-03-03T07:12:34;102410.97;;;0.99;100.00
62420;BME280;48460;51.616;5.426;2023-03-03T07:15:21;102417.97;;;1.04;100.00
62420;BME280;48460;51.616;5.426;2023-03-03T07:17:54;102405.84;;;1.02;100.00
62420;BME280;48460;51.616;5.426;2023-03-03T07:20:34;102407.56;;;1.03;100.00
62420;BME280;48460;51.616;5.426;2023-03-03T07:23:17;102414.56;;;1.11;100.00
62420;BME280;48460;51.616;5.426;2023-03-03T07:25:48;102426.63;;;1.09;100.00
62420;BME280;48460;51.616;5.426;2023-03-03T07:28:26;102425.88;;;1.18;100.00
62420;BME280;48460;51.616;5.426;2023-03-03T07:30:54;102427.47;;;1.07;100.00
62420;BME280;48460;51.616;5.426;2023-03-03T07:33:36;102434.44;;;1.11;100.00
62420;BME280;48460;51.616;5.426;2023-03-03T07:39:37;102443.09;;;1.11;100.00
62420;BME280;48460;51.616;5.426;2023-03-03T07:48:38;102450.94;;;1.16;100.00
62420;BME280;48460;51.616;5.426;2023-03-03T07:54:38;102459.59;;;1.21;100.00
62420;BME280;48460;51.616;5.426;2023-03-03T08:08:01;102452.84;;;1.32;100.00
62420;BME280;48460;51.616;5.426;2023-03-03T08:13:07;102463.22;;;1.32;100.00
62420;BME280;48460;51.616;5.426;2023-03-03T08:15:38;102477.97;;;1.40;100.00
62420;BME280;48460;51.616;5.426;2023-03-03T08:18:21;102465.88;;;1.39;100.00
62420;BME280;48460;51.616;5.426;2023-03-03T08:21:11;102467.63;;;1.43;100.00
62420;BME280;48460;51.616;5.426;2023-03-03T08:23:37;102472.03;;;1.47;100.00
62420;BME280;48460;51.616;5.426;2023-03-03T08:26:06;102476.38;;;1.49;100.00
62420;BME280;48460;51.616;5.426;2023-03-03T08:28:41;102479.00;;;1.52;100.00
62420;BME280;48460;51.616;5.426;2023-03-03T08:31:07;102474.63;;;1.48;100.00
62420;BME280;48460;51.616;5.426;2023-03-03T08:33:44;102483.34;;;1.53;100.00
62420;BME280;48460;51.616;5.426;2023-03-03T08:36:10;102490.28;;;1.56;100.00
62420;BME280;48460;51.616;5.426;2023-03-03T08:38:38;102492.88;;;1.56;100.00
62420;BME280;48460;51.616;5.426;2023-03-03T08:41:06;102490.28;;;1.57;100.00
62420;BME280;48460;51.616;5.426;2023-03-03T08:43:39;102498.06;;;1.57;100.00
62420;BME280;48460;51.616;5.426;2023-03-03T08:46:14;102485.09;;;1.57;100.00
62420;BME280;48460;51.616;5.426;2023-03-03T08:48:40;102490.28;;;1.56;100.00
62420;BME280;48460;51.616;5.426;2023-03-03T08:51:10;102497.28;;;1.63;100.00
62420;BME280;48460;51.616;5.426;2023-03-03T08:53:36;102494.72;;;1.66;100.00
62420;BME280;48460;51.616;5.426;2023-03-03T08:56:04;102489.53;;;1.65;100.00
62420;BME280;48460;51.616;5.426;2023-03-03T08:58:42;102497.41;;;1.74;100.00
62420;BME280;48460;51.616;5.426;2023-03-03T09:01:14;102494.84;;;1.77;100.00
62420;BME280;48460;51.616;5.426;2023-03-03T09:03:41;102503.69;;;1.96;100.00
62420;BME280;48460;51.616;5.426;2023-03-03T09:06:07;102507.16;;;1.96;100.00
62420;BME280;48460;51.616;5.426;2023-03-03T09:08:32;102509.84;;;2.05;100.00
62420;BME280;48460;51.616;5.426;2023-03-03T09:11:09;102504.72;;;2.12;100.00
62420;BME280;48460;51.616;5.426;2023-03-03T09:13:39;102506.53;;;2.20;100.00
62420;BME280;48460;51.616;5.426;2023-03-03T09:16:17;102516.97;;;2.28;100.00
62420;BME280;48460;51.616;5.426;2023-03-03T09:18:45;102506.56;;;2.23;100.00
62420;BME280;48460;51.616;5.426;2023-03-03T09:21:39;102516.19;;;2.37;100.00
62420;BME280;48460;51.616;5.426;2023-03-03T09:24:22;102519.63;;;2.33;100.00
62420;BME280;48460;51.616;5.426;2023-03-03T09:26:50;102501.41;;;2.28;100.00
62420;BME280;48460;51.616;5.426;2023-03-03T09:29:36;102513.63;;;2.38;100.00
62420;BME280;48460;51.616;5.426;2023-03-03T09:32:22;102509.31;;;2.39;100.00
62420;BME280;48460;51.616;5.426;2023-03-03T09:34:48;102518.06;;;2.51;100.00
62420;BME280;48460;51.616;5.426;2023-03-03T09:39:52;102533.75;;;2.65;100.00
62420;BME280;48460;51.616;5.426;2023-03-03T09:42:56;102542.47;;;2.73;100.00
62420;BME280;48460;51.616;5.426;2023-03-03T09:45:55;102541.66;;;2.82;100.00
62420;BME280;48460;51.616;5.426;2023-03-03T09:54:00;102535.59;;;2.77;100.00
62420;BME280;48460;51.616;5.426;2023-03-03T09:56:37;102533.00;;;2.82;100.00
62420;BME280;48460;51.616;5.426;2023-03-03T10:20:02;102546.25;;;3.15;100.00
62420;BME280;48460;51.616;5.426;2023-03-03T10:25:42;102538.53;;;3.31;100.00
62420;BME280;48460;51.616;5.426;2023-03-03T10:33:42;102537.72;;;3.39;100.00
62420;BME280;48460;51.616;5.426;2023-03-03T10:36:34;102535.13;;;3.47;100.00
62420;BME280;48460;51.616;5.426;2023-03-03T10:42:06;102544.81;;;3.76;100.00
62420;BME280;48460;51.616;5.426;2023-03-03T10:45:06;102550.03;;;3.89;100.00
62420;BME280;48460;51.616;5.426;2023-03-03T10:47:45;102534.47;;;3.97;100.00
62420;BME280;48460;51.616;5.426;2023-03-03T11:01:58;102529.31;;;4.26;100.00
62420;BME280;48460;51.616;5.426;2023-03-03T11:10:40;102527.59;;;4.59;98.64
62420;BME280;48460;51.616;5.426;2023-03-03T11:21:47;102540.59;;;4.96;97.46
62420;BME280;48460;51.616;5.426;2023-03-03T11:24:44;102539.72;;;5.08;96.83
62420;BME280;48460;51.616;5.426;2023-03-03T11:27:32;102536.25;;;5.04;95.49
62420;BME280;48460;51.616;5.426;2023-03-03T11:30:16;102527.53;;;5.14;96.37
62420;BME280;48460;51.616;5.426;2023-03-03T11:33:05;102521.41;;;5.31;95.86
62420;BME280;48460;51.616;5.426;2023-03-03T11:35:44;102514.38;;;5.46;94.68
62420;BME280;48460;51.616;5.426;2023-03-03T11:43:52;102512.47;;;7.02;91.84
62420;BME280;48460;51.616;5.426;2023-03-03T11:46:41;102502.13;;;7.64;86.06
62420;BME280;48460;51.616;5.426;2023-03-03T12:12:17;102501.50;;;10.71;69.67
62420;BME280;48460;51.616;5.426;2023-03-03T12:17:55;102500.81;;;11.89;67.93
62420;BME280;48460;51.616;5.426;2023-03-03T12:23:34;102489.44;;;12.93;59.63
62420;BME280;48460;51.616;5.426;2023-03-03T12:26:19;102486.72;;;13.20;59.71
62420;BME280;48460;51.616;5.426;2023-03-03T12:29:17;102469.25;;;13.41;58.78
62420;BME280;48460;51.616;5.426;2023-03-03T12:31:58;102479.22;;;13.56;54.50
62420;BME280;48460;51.616;5.426;2023-03-03T12:34:47;102468.22;;;13.90;55.36
62420;BME280;48460;51.616;5.426;2023-03-03T12:37:31;102483.97;;;14.36;55.34
62420;BME280;48460;51.616;5.426;2023-03-03T12:40:12;102477.03;;;14.96;52.21
62420;BME280;48460;51.616;5.426;2023-03-03T12:45:55;102463.81;;;14.76;53.67
62420;BME280;48460;51.616;5.426;2023-03-03T12:48:42;102482.53;;;13.85;53.92
62420;BME280;48460;51.616;5.426;2023-03-03T12:54:39;102460.28;;;11.63;58.71
62420;BME280;48460;51.616;5.426;2023-03-03T12:57:28;102454.47;;;11.52;60.64
62420;BME280;48460;51.616;5.426;2023-03-03T13:03:12;102461.28;;;13.17;56.58
62420;BME280;48460;51.616;5.426;2023-03-03T13:08:27;102454.47;;;14.03;54.61
62420;BME280;48460;51.616;5.426;2023-03-03T13:11:17;102460.44;;;14.50;53.16
62420;BME280;48460;51.616;5.426;2023-03-03T13:18:59;102457.09;;;15.08;49.14
62420;BME280;48460;51.616;5.426;2023-03-03T13:24:57;102446.38;;;13.40;51.88
62420;BME280;48460;51.616;5.426;2023-03-03T13:27:38;102447.09;;;12.71;53.58
62420;BME280;48460;51.616;5.426;2023-03-03T13:32:43;102441.41;;;13.07;53.62
62420;BME280;48460;51.616;5.426;2023-03-03T13:55:04;102430.84;;;11.49;57.93
62420;BME280;48460;51.616;5.426;2023-03-03T14:04:04;102426.25;;;11.56;56.12
62420;BME280;48460;51.616;5.426;2023-03-03T14:07:06;102424.59;;;10.92;57.79
62420;BME280;48460;51.616;5.426;2023-03-03T14:21:42;102422.00;;;11.22;59.89
62420;BME280;48460;51.616;5.426;2023-03-03T14:25:07;102404.22;;;11.30;59.69
62420;BME280;48460;51.616;5.426;2023-03-03T14:27:36;102413.22;;;11.51;57.87
62420;BME280;48460;51.616;5.426;2023-03-03T14:30:38;102418.06;;;11.37;59.01
62420;BME280;48460;51.616;5.426;2023-03-03T14:38:25;102403.41;;;10.66;58.82
62420;BME280;48460;51.616;5.426;2023-03-03T14:41:18;102414.53;;;10.43;59.50
62420;BME280;48460;51.616;5.426;2023-03-03T14:44:06;102412.75;;;10.09;60.12
62420;BME280;48460;51.616;5.426;2023-03-03T14:49:32;102392.41;;;11.98;56.38
62420;BME280;48460;51.616;5.426;2023-03-03T14:55:32;102394.91;;;12.54;54.81
62420;BME280;48460;51.616;5.426;2023-03-03T14:58:00;102394.31;;;11.95;53.41
62420;BME280;48460;51.616;5.426;2023-03-03T15:00:36;102388.94;;;12.49;53.39
62420;BME280;48460;51.616;5.426;2023-03-03T15:03:21;102386.28;;;13.45;51.85
62420;BME280;48460;51.616;5.426;2023-03-03T15:05:54;102387.94;;;14.34;48.45
62420;BME280;48460;51.616;5.426;2023-03-03T15:08:32;102388.81;;;15.13;47.76
62420;BME280;48460;51.616;5.426;2023-03-03T15:11:29;102378.50;;;15.45;46.29
62420;BME280;48460;51.616;5.426;2023-03-03T15:14:11;102371.63;;;15.03;47.19
62420;BME280;48460;51.616;5.426;2023-03-03T15:16:38;102375.47;;;14.16;47.49
62420;BME280;48460;51.616;5.426;2023-03-03T15:19:36;102379.91;;;13.73;50.20
62420;BME280;48460;51.616;5.426;2023-03-03T15:22:13;102385.53;;;14.07;47.57
62420;BME280;48460;51.616;5.426;2023-03-03T15:24:57;102376.13;;;14.41;46.53
62420;BME280;48460;51.616;5.426;2023-03-03T15:27:40;102373.50;;;14.62;45.03
62420;BME280;48460;51.616;5.426;2023-03-03T15:44:11;102339.63;;;14.49;46.27
62420;BME280;48460;51.616;5.426;2023-03-03T15:53:16;102351.38;;;12.66;49.24
62420;BME280;48460;51.616;5.426;2023-03-03T15:56:12;102354.09;;;12.15;50.86
62420;BME280;48460;51.616;5.426;2023-03-03T15:59:03;102352.25;;;11.63;52.46
62420;BME280;48460;51.616;5.426;2023-03-03T16:01:40;102343.28;;;11.13;53.62
62420;BME280;48460;51.616;5.426;2023-03-03T16:04:15;102336.97;;;10.89;54.63
62420;BME280;48460;51.616;5.426;2023-03-03T16:06:49;102347.91;;;10.73;55.86
62420;BME280;48460;51.616;5.426;2023-03-03T16:09:31;102343.84;;;10.63;57.40
62420;BME280;48460;51.616;5.426;2023-03-03T16:12:16;102346.16;;;10.43;57.62
62420;BME280;48460;51.616;5.426;2023-03-03T16:17:51;102348.06;;;10.02;59.14
62420;BME280;48460;51.616;5.426;2023-03-03T16:20:34;102360.13;;;9.75;59.68
62420;BME280;48460;51.616;5.426;2023-03-03T16:23:26;102357.25;;;9.48;60.80
62420;BME280;48460;51.616;5.426;2023-03-03T16:26:14;102359.38;;;9.32;61.12
62420;BME280;48460;51.616;5.426;2023-03-03T16:46:33;102366.44;;;7.91;66.50
62420;BME280;48460;51.616;5.426;2023-03-03T16:59:51;102385.53;;;7.42;69.97
62420;BME280;48460;51.616;5.426;2023-03-03T17:02:31;102389.09;;;7.36;70.18
62420;BME280;48460;51.616;5.426;2023-03-03T17:08:15;102380.63;;;7.17;70.87
62420;BME280;48460;51.616;5.426;2023-03-03T17:21:58;102398.22;;;7.04;70.26
62420;BME280;48460;51.616;5.426;2023-03-03T17:33:10;102406.34;;;6.81;70.91
62420;BME280;48460;51.616;5.426;2023-03-03T17:43:50;102419.66;;;6.57;71.75
62420;BME280;48460;51.616;5.426;2023-03-03T17:46:32;102416.25;;;6.47;71.98
62420;BME280;48460;51.616;5.426;2023-03-03T18:00:37;102455.63;;;6.29;74.24
62420;BME280;48460;51.616;5.426;2023-03-03T18:12:17;102450.59;;;6.03;75.08
62420;BME280;48460;51.616;5.426;2023-03-03T18:17:18;102454.97;;;5.98;75.66
62420;BME280;48460;51.616;5.426;2023-03-03T18:22:53;102458.47;;;6.00;76.00
62420;BME280;48460;51.616;5.426;2023-03-03T18:25:50;102455.00;;;5.94;76.01
62420;BME280;48460;51.616;5.426;2023-03-03T18:28:19;102470.66;;;5.98;75.81
62420;BME280;48460;51.616;5.426;2023-03-03T18:31:02;102467.22;;;5.89;75.01
62420;BME280;48460;51.616;5.426;2023-03-03T18:34:01;102468.06;;;5.88;75.28
62420;BME280;48460;51.616;5.426;2023-03-03T18:39:04;102472.44;;;5.85;74.78
62420;BME280;48460;51.616;5.426;2023-03-03T18:41:32;102464.63;;;5.86;76.78
62420;BME280;48460;51.616;5.426;2023-03-03T18:44:01;102478.50;;;5.90;76.12
62420;BME280;48460;51.616;5.426;2023-03-03T18:46:46;102479.41;;;5.89;76.01
62420;BME280;48460;51.616;5.426;2023-03-03T18:49:12;102477.63;;;5.94;76.46
62420;BME280;48460;51.616;5.426;2023-03-03T18:51:47;102475.00;;;5.99;76.82
62420;BME280;48460;51.616;5.426;2023-03-03T19:02:20;102475.78;;;6.11;76.81
62420;BME280;48460;51.616;5.426;2023-03-03T19:04:54;102465.38;;;6.04;76.41
62420;BME280;48460;51.616;5.426;2023-03-03T19:07:45;102477.53;;;6.09;76.22
62420;BME280;48460;51.616;5.426;2023-03-03T19:12:49;102475.00;;;6.02;76.70
62420;BME280;48460;51.616;5.426;2023-03-03T19:18:23;102472.34;;;6.03;76.88